Time;durP1;ratioP1;P1;durP2;ratioP2;P2;SDS_P1;SDS_P2;PMS_P1;PMS_P2;Temp;Humidity;BMP_temperature;BMP_pressure;BME280_temperature;BME280_humidity;BME280_pressure;Samples;Min_cycle;Max_cycle;Signal;HPM_P1;HPM_P2
2023/04/16 00:01:22;;;;;;;204.55;46.20;;;8.00;99.90;;;;;;5059054;28;20052;-23
2023/04/16 00:03:48;;;;;;;223.18;48.65;;;8.10;99.90;;;;;;5059552;28;20052;-23
2023/04/16 00:06:14;;;;;;;188.85;44.33;;;8.00;99.90;;;;;;5059253;28;20044;-23
2023/04/16 00:08:40;;;;;;;188.90;44.10;;;8.10;99.90;;;;;;5058834;28;20049;-24
2023/04/16 00:11:06;;;;;;;196.75;42.08;;;8.00;99.90;;;;;;5042223;28;20045;-23
2023/04/16 00:13:32;;;;;;;189.30;44.33;;;8.00;99.90;;;;;;5042139;28;20048;-23
2023/04/16 00:15:58;;;;;;;188.48;44.17;;;8.10;99.90;;;;;;5042449;28;20049;-24
2023/04/16 00:18:23;;;;;;;213.82;44.65;;;8.00;99.90;;;;;;5076825;28;20053;-23
2023/04/16 00:20:50;;;;;;;213.55;45.95;;;8.00;99.90;;;;;;5076543;28;20105;-23
2023/04/16 00:23:16;;;;;;;173.45;37.83;;;8.00;99.90;;;;;;5076488;28;20044;-23
2023/04/16 00:25:42;;;;;;;238.43;47.45;;;8.00;99.90;;;;;;5058726;28;20479;-23
2023/04/16 00:28:08;;;;;;;209.18;45.40;;;8.00;99.90;;;;;;5009503;28;20139;-23
2023/04/16 00:30:34;;;;;;;205.57;45.05;;;8.00;99.90;;;;;;5058452;28;20083;-23
2023/04/16 00:32:59;;;;;;;186.70;42.20;;;7.90;99.90;;;;;;5059036;28;20101;-23
2023/04/16 00:35:25;;;;;;;197.85;43.35;;;7.90;99.90;;;;;;5076252;28;20045;-23
2023/04/16 00:37:51;;;;;;;174.68;41.58;;;7.90;99.90;;;;;;5076383;28;20128;-23
2023/04/16 00:40:17;;;;;;;187.02;44.13;;;7.90;99.90;;;;;;5077006;28;20043;-23
2023/04/16 00:42:42;;;;;;;201.65;46.03;;;7.90;99.90;;;;;;5058954;28;20548;-23
2023/04/16 00:45:09;;;;;;;180.63;44.67;;;7.90;99.90;;;;;;5058262;28;20174;-23
2023/04/16 00:47:35;;;;;;;148.77;39.85;;;7.90;99.90;;;;;;5076092;28;20098;-23
2023/04/16 00:50:03;;;;;;;182.23;46.78;;;7.90;99.90;;;;;;5076253;28;20052;-23
2023/04/16 00:52:30;;;;;;;178.88;46.15;;;7.90;99.90;;;;;;5075678;28;20414;-23
2023/04/16 00:54:57;;;;;;;176.30;43.35;;;7.90;99.90;;;;;;5075924;28;20056;-23
2023/04/16 00:57:23;;;;;;;175.07;43.15;;;7.90;99.90;;;;;;5075957;28;20060;-23
2023/04/16 00:59:49;;;;;;;175.18;43.50;;;7.90;99.90;;;;;;5075596;28;20109;-23
2023/04/16 01:02:15;;;;;;;206.57;45.67;;;7.90;99.90;;;;;;5075792;28;20052;-23
2023/04/16 01:04:41;;;;;;;181.48;46.20;;;7.80;99.90;;;;;;5076288;28;20067;-23
2023/04/16 01:07:07;;;;;;;149.55;42.47;;;7.80;99.90;;;;;;5058059;28;20592;-23
2023/04/16 01:09:33;;;;;;;181.15;44.63;;;7.90;99.90;;;;;;5075722;28;20135;-23
2023/04/16 01:11:58;;;;;;;219.82;45.97;;;7.80;99.90;;;;;;5076160;28;20378;-23
2023/04/16 01:14:24;;;;;;;195.13;46.92;;;7.90;99.90;;;;;;5076130;28;20093;-23
2023/04/16 01:16:50;;;;;;;185.48;46.50;;;7.80;99.90;;;;;;5075450;28;20128;-23
2023/04/16 01:19:15;;;;;;;184.50;42.33;;;7.80;99.90;;;;;;5075474;28;20056;-23
2023/04/16 01:21:41;;;;;;;199.07;44.25;;;7.80;99.90;;;;;;5075344;28;20506;-23
2023/04/16 01:24:07;;;;;;;206.00;48.15;;;7.80;99.90;;;;;;5057657;28;20044;-23
2023/04/16 01:26:32;;;;;;;217.73;48.25;;;7.80;99.90;;;;;;5041283;28;20056;-23
2023/04/16 01:28:58;;;;;;;234.90;46.10;;;7.80;99.90;;;;;;5075523;28;20056;-23
2023/04/16 01:31:24;;;;;;;219.23;45.45;;;7.80;99.90;;;;;;5075459;28;20570;-24
2023/04/16 01:33:50;;;;;;;200.60;46.78;;;7.80;99.90;;;;;;5040932;28;20080;-23
2023/04/16 01:36:16;;;;;;;234.70;50.70;;;7.80;99.90;;;;;;5040451;28;20086;-23
2023/04/16 01:38:42;;;;;;;262.25;49.10;;;7.80;99.90;;;;;;5075116;28;20371;-23
2023/04/16 01:41:08;;;;;;;293.42;52.90;;;7.80;99.90;;;;;;5058153;28;20048;-23
2023/04/16 01:43:33;;;;;;;235.98;50.88;;;7.80;99.90;;;;;;5058180;28;20054;-23
2023/04/16 01:46:30;;;;;;;241.82;50.60;;;7.80;99.90;;;;;;5074795;28;20483;-24
2023/04/16 01:48:56;;;;;;;276.15;51.03;;;7.80;99.90;;;;;;5058441;28;20056;-23
2023/04/16 01:51:22;;;;;;;266.92;51.65;;;7.80;99.90;;;;;;5074816;28;20040;-23
2023/04/16 01:53:49;;;;;;;238.63;50.53;;;7.80;99.90;;;;;;5074751;28;20048;-23
2023/04/16 01:56:15;;;;;;;265.42;50.58;;;7.80;99.90;;;;;;5074699;28;20052;-23
2023/04/16 01:58:41;;;;;;;233.57;49.72;;;7.80;99.90;;;;;;5040518;28;20048;-23
2023/04/16 02:01:08;;;;;;;203.63;48.10;;;7.80;99.90;;;;;;5074372;28;20491;-23
2023/04/16 02:03:34;;;;;;;234.52;50.17;;;7.80;99.90;;;;;;5056935;28;20044;-23
2023/04/16 02:06:00;;;;;;;272.42;47.95;;;7.80;99.90;;;;;;5074121;28;20514;-23
2023/04/16 02:08:26;;;;;;;280.85;52.25;;;7.90;99.90;;;;;;5074488;28;20044;-23
2023/04/16 02:10:52;;;;;;;277.70;50.80;;;7.90;99.90;;;;;;5074456;28;20494;-23
2023/04/16 02:13:18;;;;;;;274.83;52.95;;;7.80;99.90;;;;;;5056982;28;20051;-23
2023/04/16 02:15:47;;;;;;;264.58;49.38;;;7.80;99.90;;;;;;5074387;28;20049;-23
2023/04/16 02:18:14;;;;;;;277.70;49.78;;;7.80;99.90;;;;;;5074277;28;20048;-23
2023/04/16 02:20:44;;;;;;;241.68;46.97;;;7.80;99.90;;;;;;5056122;28;20398;-23
2023/04/16 02:23:11;;;;;;;209.43;47.20;;;7.80;99.90;;;;;;5074251;28;20041;-23
2023/04/16 02:25:46;;;;;;;237.70;48.58;;;7.80;99.90;;;;;;5074090;28;20047;-23
2023/04/16 02:28:16;;;;;;;277.80;52.50;;;7.80;99.90;;;;;;5074051;28;20055;-23
2023/04/16 02:30:42;;;;;;;244.93;49.38;;;7.80;99.90;;;;;;5057210;28;20387;-24
2023/04/16 02:33:10;;;;;;;218.43;46.30;;;7.80;99.90;;;;;;5056418;28;20049;-23
2023/04/16 02:35:36;;;;;;;209.32;48.05;;;7.80;99.90;;;;;;5074021;28;20044;-23
2023/04/16 02:38:03;;;;;;;206.48;45.63;;;7.80;99.90;;;;;;5073547;28;20067;-24
2023/04/16 02:40:29;;;;;;;203.57;47.72;;;7.80;99.90;;;;;;5073965;28;20048;-23
2023/04/16 02:42:55;;;;;;;218.15;50.10;;;7.80;99.90;;;;;;5074742;28;20056;-23
2023/04/16 02:45:22;;;;;;;205.48;49.33;;;7.80;99.90;;;;;;5074647;28;20084;-23
2023/04/16 02:47:48;;;;;;;203.85;46.78;;;7.80;99.90;;;;;;5073873;28;20049;-24
2023/04/16 02:50:14;;;;;;;238.77;47.45;;;7.80;99.90;;;;;;5056098;28;20079;-23
2023/04/16 02:52:40;;;;;;;205.63;42.22;;;7.80;99.90;;;;;;5073768;28;20076;-24
2023/04/16 02:55:06;;;;;;;202.85;45.25;;;7.80;99.90;;;;;;5073384;28;20475;-23
2023/04/16 02:57:32;;;;;;;179.73;42.85;;;7.80;99.90;;;;;;5074336;28;20040;-23
2023/04/16 02:59:58;;;;;;;227.63;42.38;;;7.80;99.90;;;;;;5039280;28;20052;-23
2023/04/16 03:02:24;;;;;;;227.02;45.95;;;7.80;99.90;;;;;;5055707;28;20044;-23
2023/04/16 03:04:49;;;;;;;233.57;45.50;;;7.80;99.90;;;;;;5073633;28;20045;-23
2023/04/16 03:07:17;;;;;;;222.15;45.92;;;7.80;99.90;;;;;;5073602;28;20052;-23
2023/04/16 03:09:43;;;;;;;243.13;46.75;;;7.80;99.90;;;;;;5073625;28;20055;-23
2023/04/16 03:12:08;;;;;;;284.35;50.60;;;7.80;99.90;;;;;;5073547;28;20045;-23
2023/04/16 03:14:34;;;;;;;282.00;49.22;;;7.80;99.90;;;;;;5073250;28;20048;-23
2023/04/16 03:17:00;;;;;;;301.08;50.08;;;7.70;99.90;;;;;;5074371;28;20044;-23
2023/04/16 03:19:26;;;;;;;237.75;45.25;;;7.70;99.90;;;;;;5055854;28;20111;-23
2023/04/16 03:21:52;;;;;;;222.00;44.47;;;7.70;99.90;;;;;;5073510;28;20048;-23
2023/04/16 03:24:17;;;;;;;237.98;46.97;;;7.70;99.90;;;;;;5073359;28;20036;-23
2023/04/16 03:26:43;;;;;;;199.60;44.05;;;7.70;99.90;;;;;;5055768;28;20083;-23
2023/04/16 03:29:08;;;;;;;202.93;44.28;;;7.70;99.90;;;;;;5073923;28;20383;-23
2023/04/16 03:31:34;;;;;;;215.13;43.97;;;7.60;99.90;;;;;;5055635;28;20069;-23
2023/04/16 03:34:00;;;;;;;211.88;44.55;;;7.60;99.90;;;;;;5055750;28;20573;-23
2023/04/16 03:36:26;;;;;;;209.70;45.10;;;7.60;99.90;;;;;;5073199;28;20049;-23
2023/04/16 03:38:52;;;;;;;196.93;44.70;;;7.60;99.90;;;;;;5073386;28;20088;-23
2023/04/16 03:41:18;;;;;;;223.13;45.30;;;7.60;99.90;;;;;;5073299;28;20084;-23
2023/04/16 03:43:43;;;;;;;222.60;44.65;;;7.60;99.90;;;;;;5073277;28;20110;-23
2023/04/16 03:46:10;;;;;;;205.05;45.13;;;7.60;99.90;;;;;;5073321;28;20122;-23
2023/04/16 03:48:35;;;;;;;185.82;42.70;;;7.60;99.90;;;;;;5055415;28;20456;-23
2023/04/16 03:51:02;;;;;;;209.80;41.85;;;7.60;99.90;;;;;;5073481;28;20048;-23
2023/04/16 03:53:28;;;;;;;171.85;40.00;;;7.50;99.90;;;;;;5073993;28;20072;-23
2023/04/16 03:55:53;;;;;;;171.30;41.97;;;7.50;99.90;;;;;;5073703;28;20360;-23
2023/04/16 03:58:19;;;;;;;172.90;37.90;;;7.50;99.90;;;;;;5055805;28;20048;-23
2023/04/16 04:00:45;;;;;;;173.55;40.63;;;7.50;99.90;;;;;;5055490;28;20044;-23
2023/04/16 04:03:11;;;;;;;182.13;38.55;;;7.50;99.90;;;;;;5073703;28;20563;-23
2023/04/16 04:05:40;;;;;;;151.80;39.25;;;7.50;99.90;;;;;;5073848;28;20101;-23
2023/04/16 04:08:06;;;;;;;167.75;38.90;;;7.50;99.90;;;;;;5076788;28;20052;-23
2023/04/16 04:10:34;;;;;;;178.45;39.20;;;7.50;99.90;;;;;;5076720;28;20051;-23
2023/04/16 04:13:01;;;;;;;161.52;39.13;;;7.50;99.90;;;;;;5058915;28;20048;-23
2023/04/16 04:15:27;;;;;;;165.25;40.67;;;7.50;99.90;;;;;;5077160;28;20041;-23
2023/04/16 04:17:53;;;;;;;182.80;38.35;;;7.50;99.90;;;;;;5058811;28;20044;-23
2023/04/16 04:20:18;;;;;;;204.57;42.30;;;7.50;99.90;;;;;;5076598;28;20080;-23
2023/04/16 04:22:44;;;;;;;152.98;37.17;;;7.50;99.90;;;;;;5059257;28;20049;-24
2023/04/16 04:25:11;;;;;;;170.65;38.25;;;7.50;99.90;;;;;;5076452;28;20141;-23
2023/04/16 04:27:36;;;;;;;172.77;38.50;;;7.50;99.90;;;;;;5058680;28;20076;-23
2023/04/16 04:30:03;;;;;;;133.70;34.83;;;7.50;99.90;;;;;;5076428;28;20148;-23
2023/04/16 04:32:30;;;;;;;133.82;34.70;;;7.50;99.90;;;;;;5077183;28;20377;-23
2023/04/16 04:34:56;;;;;;;165.77;37.22;;;7.50;99.90;;;;;;5059168;28;20389;-23
2023/04/16 04:37:22;;;;;;;163.52;38.80;;;7.50;99.90;;;;;;5058424;28;20063;-23
2023/04/16 04:39:47;;;;;;;117.13;31.23;;;7.40;99.90;;;;;;5059271;28;20409;-23
2023/04/16 04:42:17;;;;;;;162.73;37.13;;;7.40;99.90;;;;;;5076131;28;20496;-23
2023/04/16 04:44:44;;;;;;;125.20;31.52;;;7.40;99.90;;;;;;5076142;28;20045;-24
2023/04/16 04:47:10;;;;;;;181.30;40.33;;;7.40;99.90;;;;;;5076080;28;20132;-23
2023/04/16 04:49:35;;;;;;;194.07;40.80;;;7.40;99.90;;;;;;5076343;28;20119;-23
2023/04/16 04:52:01;;;;;;;205.00;40.80;;;7.40;99.90;;;;;;5041478;28;20044;-23
2023/04/16 04:54:31;;;;;;;220.27;41.17;;;7.40;99.90;;;;;;5058582;28;20052;-23
2023/04/16 04:56:56;;;;;;;203.73;40.20;;;7.40;99.90;;;;;;5076156;28;20048;-23
2023/04/16 04:59:23;;;;;;;200.48;40.42;;;7.40;99.90;;;;;;5076722;28;20056;-23
2023/04/16 05:01:49;;;;;;;220.77;40.65;;;7.40;99.90;;;;;;5075842;28;20083;-23
2023/04/16 05:04:15;;;;;;;242.07;44.47;;;7.40;99.90;;;;;;5058787;28;20098;-23
2023/04/16 05:06:41;;;;;;;305.85;44.03;;;7.40;99.90;;;;;;5075754;28;20127;-23
2023/04/16 05:09:10;;;;;;;271.80;45.70;;;7.40;99.90;;;;;;5075703;28;20131;-23
2023/04/16 05:11:40;;;;;;;189.02;35.13;;;7.50;99.90;;;;;;5057707;28;20519;-23
2023/04/16 05:14:06;;;;;;;185.50;36.58;;;7.50;99.90;;;;;;5075910;28;20047;-23
2023/04/16 05:16:35;;;;;;;145.48;34.10;;;7.50;99.90;;;;;;5076028;28;20423;-23
2023/04/16 05:19:01;;;;;;;179.07;37.28;;;7.50;99.90;;;;;;5057840;28;20040;-23
2023/04/16 05:21:26;;;;;;;163.70;36.50;;;7.50;99.90;;;;;;5076002;28;20055;-23
2023/04/16 05:23:52;;;;;;;180.23;39.05;;;7.60;99.90;;;;;;5075336;28;20063;-23
2023/04/16 05:26:18;;;;;;;191.30;39.13;;;7.60;99.90;;;;;;5075331;28;20047;-23
2023/04/16 05:28:44;;;;;;;204.07;41.03;;;7.70;99.90;;;;;;5076063;28;20094;-23
2023/04/16 05:31:09;;;;;;;238.27;40.72;;;7.70;99.90;;;;;;5074927;28;20454;-23
2023/04/16 05:33:35;;;;;;;177.13;39.63;;;7.80;99.90;;;;;;5075488;28;20044;-23
2023/04/16 05:36:01;;;;;;;159.68;34.83;;;7.90;99.90;;;;;;5075416;28;20463;-23
2023/04/16 05:38:27;;;;;;;153.57;35.10;;;7.90;99.90;;;;;;5057514;28;20056;-23
2023/04/16 05:40:52;;;;;;;159.70;36.33;;;8.00;99.90;;;;;;5075037;28;20048;-24
2023/04/16 05:43:18;;;;;;;169.35;39.33;;;8.00;99.90;;;;;;5075014;28;20045;-23
2023/04/16 05:45:44;;;;;;;137.13;32.58;;;8.10;99.90;;;;;;5075737;28;20055;-23
2023/04/16 05:48:10;;;;;;;149.73;34.85;;;8.00;99.90;;;;;;5075142;28;20387;-23
2023/04/16 05:50:36;;;;;;;140.93;33.97;;;8.10;99.90;;;;;;5057110;28;20049;-23
2023/04/16 05:53:04;;;;;;;142.02;32.67;;;8.20;99.90;;;;;;5075336;28;20040;-23
2023/04/16 05:55:30;;;;;;;137.65;32.55;;;8.20;99.90;;;;;;5074820;28;20045;-23
2023/04/16 05:57:56;;;;;;;145.55;33.40;;;8.30;99.90;;;;;;5074725;28;20052;-23
2023/04/16 06:00:21;;;;;;;119.63;33.75;;;8.30;99.90;;;;;;5075196;28;20094;-23
2023/04/16 06:02:47;;;;;;;140.77;35.47;;;8.40;99.90;;;;;;5056927;28;20052;-23
2023/04/16 06:05:13;;;;;;;141.60;33.30;;;8.40;99.90;;;;;;5074471;28;20133;-23
2023/04/16 06:07:39;;;;;;;114.38;32.90;;;8.50;99.90;;;;;;5074480;28;20044;-23
2023/04/16 06:10:05;;;;;;;118.60;33.85;;;8.60;99.90;;;;;;5074441;28;20135;-23
2023/04/16 06:12:31;;;;;;;117.25;33.75;;;8.70;99.90;;;;;;5056582;28;20095;-23
2023/04/16 06:14:56;;;;;;;119.57;33.00;;;8.70;99.90;;;;;;5074408;28;20072;-23
2023/04/16 06:17:22;;;;;;;115.35;36.10;;;8.80;99.90;;;;;;5074297;28;20483;-23
2023/04/16 06:19:48;;;;;;;120.47;34.20;;;8.90;99.90;;;;;;5056624;28;20052;-23
2023/04/16 06:22:13;;;;;;;109.10;31.73;;;8.90;99.90;;;;;;5074585;28;20044;-23
2023/04/16 06:24:39;;;;;;;104.72;29.80;;;8.90;99.90;;;;;;5074169;28;20045;-23
2023/04/16 06:27:05;;;;;;;85.50;29.58;;;8.90;99.90;;;;;;5074106;28;20051;-24
2023/04/16 06:29:30;;;;;;;97.97;28.10;;;8.90;99.90;;;;;;5055705;28;20048;-24
2023/04/16 06:31:56;;;;;;;73.20;28.17;;;8.90;99.90;;;;;;5074386;28;20044;-23
2023/04/16 06:34:22;;;;;;;82.93;27.88;;;8.80;99.90;;;;;;5056920;28;20131;-23
2023/04/16 06:36:47;;;;;;;92.25;26.88;;;8.70;99.90;;;;;;5056183;28;20048;-23
2023/04/16 06:39:13;;;;;;;87.50;26.00;;;8.70;99.90;;;;;;5074553;28;20045;-23
2023/04/16 06:41:39;;;;;;;72.18;26.63;;;8.70;99.90;;;;;;5074016;28;20103;-23
2023/04/16 06:44:05;;;;;;;92.82;27.33;;;8.70;99.90;;;;;;5073863;28;20044;-24
2023/04/16 06:46:31;;;;;;;76.72;25.63;;;8.80;99.90;;;;;;5057131;28;20145;-23
2023/04/16 06:48:56;;;;;;;79.82;25.15;;;8.80;99.90;;;;;;5074659;28;20459;-23
2023/04/16 06:51:22;;;;;;;78.97;26.23;;;8.90;99.90;;;;;;5056017;28;20056;-23
2023/04/16 06:53:48;;;;;;;60.20;24.40;;;9.10;99.90;;;;;;5073639;28;20482;-23
2023/04/16 06:56:14;;;;;;;65.80;25.83;;;9.40;99.90;;;;;;5073691;28;20449;-24
2023/04/16 06:58:39;;;;;;;75.25;25.00;;;9.50;99.90;;;;;;5074232;28;20049;-23
2023/04/16 07:01:05;;;;;;;54.53;22.05;;;9.60;99.90;;;;;;5073616;28;20139;-24
2023/04/16 07:03:31;;;;;;;62.30;23.38;;;9.60;99.90;;;;;;5073575;28;20041;-23
2023/04/16 07:05:57;;;;;;;65.05;21.92;;;9.70;99.90;;;;;;5056306;28;20048;-24
2023/04/16 07:08:23;;;;;;;74.72;22.75;;;9.60;99.90;;;;;;5055654;28;20135;-24
2023/04/16 07:10:49;;;;;;;57.58;21.80;;;9.60;99.90;;;;;;5073724;28;20080;-24
2023/04/16 07:13:17;;;;;;;60.10;21.85;;;9.70;99.90;;;;;;5055526;28;20087;-24
2023/04/16 07:15:43;;;;;;;52.10;21.35;;;9.90;99.90;;;;;;5073430;28;20048;-24
2023/04/16 07:18:08;;;;;;;59.17;20.90;;;10.10;99.90;;;;;;5055479;28;20059;-24
2023/04/16 07:20:35;;;;;;;53.03;20.13;;;10.20;99.90;;;;;;5055580;28;20051;-24
2023/04/16 07:23:00;;;;;;;50.95;19.00;;;10.30;99.90;;;;;;5055654;28;20059;-24
2023/04/16 07:25:27;;;;;;;49.90;18.45;;;;;;;;;;5073267;28;20040;-24
2023/04/16 07:27:52;;;;;;;46.15;17.88;;;10.60;99.90;;;;;;5055365;28;20044;-24
2023/04/16 07:30:18;;;;;;;46.40;17.00;;;10.80;99.90;;;;;;5055577;28;20055;-24
2023/04/16 07:32:44;;;;;;;32.90;13.73;;;10.80;99.90;;;;;;5073674;28;20040;-24
2023/04/16 07:35:11;;;;;;;41.08;14.88;;;10.90;99.90;;;;;;5056340;28;20049;-24
2023/04/16 07:37:37;;;;;;;47.10;17.00;;;10.90;99.90;;;;;;5055522;28;20061;-24
2023/04/16 07:40:03;;;;;;;39.92;16.17;;;10.80;99.90;;;;;;5075024;28;20044;-24
2023/04/16 07:42:29;;;;;;;45.13;15.55;;;11.10;99.90;;;;;;5060504;28;20048;-24
2023/04/16 07:44:54;;;;;;;42.97;15.75;;;11.10;99.90;;;;;;5077203;28;20403;-23
2023/04/16 07:47:21;;;;;;;32.63;15.18;;;11.40;99.90;;;;;;5043323;28;20041;-23
2023/04/16 07:49:49;;;;;;;43.88;14.90;;;11.30;99.90;;;;;;5077265;28;20153;-23
2023/04/16 07:52:15;;;;;;;40.45;15.93;;;11.10;99.90;;;;;;5077969;28;20395;-23
2023/04/16 07:54:40;;;;;;;45.20;16.70;;;11.00;99.90;;;;;;5077072;28;20059;-24
2023/04/16 07:57:06;;;;;;;39.58;16.25;;;11.10;99.90;;;;;;5077592;28;20467;-23
2023/04/16 07:59:32;;;;;;;41.95;15.18;;;11.40;99.90;;;;;;5043085;28;20149;-24
2023/04/16 08:01:57;;;;;;;44.58;16.70;;;12.00;99.90;;;;;;5077806;28;20040;-23
2023/04/16 08:04:23;;;;;;;41.28;15.63;;;12.30;99.90;;;;;;5076775;28;20386;-24
2023/04/16 08:06:50;;;;;;;38.45;16.50;;;12.00;99.90;;;;;;5077381;28;20070;-24
2023/04/16 08:09:16;;;;;;;44.08;16.88;;;11.90;99.90;;;;;;5076809;28;20465;-24
2023/04/16 08:11:42;;;;;;;40.97;15.70;;;12.00;99.90;;;;;;5058954;28;20131;-24
2023/04/16 08:14:08;;;;;;;35.40;15.10;;;12.30;99.90;;;;;;5076771;28;20539;-24
2023/04/16 08:16:33;;;;;;;36.35;14.55;;;12.50;99.90;;;;;;5077477;28;20063;-24
2023/04/16 08:18:59;;;;;;;40.13;15.25;;;12.40;99.90;;;;;;5076855;28;20367;-24
2023/04/16 08:21:26;;;;;;;45.15;16.15;;;12.10;1.00;;;;;;5076658;28;20052;-24
2023/04/16 08:23:53;;;;;;;35.13;15.10;;;12.20;1.30;;;;;;5076114;28;20495;-24
2023/04/16 08:26:19;;;;;;;34.95;16.17;;;12.20;91.60;;;;;;5059097;28;20044;-24
2023/04/16 08:28:45;;;;;;;41.83;16.92;;;12.10;1.00;;;;;;5076322;28;20478;-24
2023/04/16 08:31:10;;;;;;;37.15;15.82;;;12.20;8.40;;;;;;5059624;28;20060;-24
2023/04/16 08:33:36;;;;;;;35.88;15.82;;;12.50;55.30;;;;;;5076927;28;20049;-24
2023/04/16 08:36:02;;;;;;;43.63;16.38;;;12.90;14.70;;;;;;5076669;28;20052;-24
2023/04/16 08:38:28;;;;;;;35.75;15.10;;;13.20;1.00;;;;;;5077138;28;20109;-24
2023/04/16 08:40:55;;;;;;;38.20;17.00;;;12.90;1.00;;;;;;5058950;28;20045;-24
2023/04/16 08:43:23;;;;;;;46.33;15.65;;;13.00;1.00;;;;;;5058549;28;20052;-23
2023/04/16 08:45:52;;;;;;;49.75;17.17;;;13.10;1.00;;;;;;5058088;28;20041;-22
2023/04/16 08:48:20;;;;;;;39.75;15.25;;;13.10;1.00;;;;;;5059210;28;20052;-22
2023/04/16 08:50:50;;;;;;;45.22;15.63;;;12.70;99.90;;;;;;5076312;28;20092;-23
2023/04/16 08:53:19;;;;;;;37.97;15.40;;;13.00;1.00;;;;;;5057766;28;20486;-22
2023/04/16 08:55:49;;;;;;;38.17;17.30;;;12.90;1.00;;;;;;5058632;28;20123;-22
2023/04/16 08:58:18;;;;;;;34.72;15.15;;;12.90;99.90;;;;;;5076268;28;20055;-23
2023/04/16 09:00:45;;;;;;;37.58;15.55;;;13.10;1.00;;;;;;5058016;28;20044;-23
2023/04/16 09:03:11;;;;;;;37.63;15.95;;;13.20;99.90;;;;;;5076656;28;20052;-23
2023/04/16 09:05:38;;;;;;;39.33;15.70;;;13.20;99.90;;;;;;5076032;28;20473;-23
2023/04/16 09:08:05;;;;;;;44.45;16.23;;;13.00;99.90;;;;;;5075749;28;20048;-23
2023/04/16 09:10:31;;;;;;;37.65;16.10;;;12.80;17.20;;;;;;5076466;28;20044;-23
2023/04/16 09:12:57;;;;;;;39.30;16.65;;;12.70;99.90;;;;;;5041396;28;20052;-23
2023/04/16 09:15:24;;;;;;;38.45;15.85;;;12.70;99.90;;;;;;5075567;28;20093;-23
2023/04/16 09:17:51;;;;;;;41.70;16.27;;;13.00;99.90;;;;;;5075519;28;20059;-23
2023/04/16 09:20:18;;;;;;;40.35;16.63;;;13.10;99.90;;;;;;5075534;28;20055;-22
2023/04/16 09:22:45;;;;;;;42.30;16.27;;;13.10;99.90;;;;;;5058034;28;20194;-23
2023/04/16 09:25:11;;;;;;;35.38;16.05;;;13.30;99.90;;;;;;5075640;28;20052;-23
2023/04/16 09:27:38;;;;;;;37.00;16.40;;;13.30;99.90;;;;;;5075308;28;20182;-22
2023/04/16 09:30:24;;;;;;;37.17;16.35;;;13.60;99.90;;;;;;5057537;28;20049;-23
2023/04/16 09:32:51;;;;;;;35.58;15.32;;;13.40;1.00;;;;;;5057344;28;20053;-23
2023/04/16 09:35:18;;;;;;;38.80;16.77;;;13.10;92.00;;;;;;5075108;28;20045;-23
2023/04/16 09:37:54;;;;;;;39.28;16.33;;;12.90;99.90;;;;;;5056788;28;20570;-23
2023/04/16 09:40:25;;;;;;;35.88;16.83;;;13.00;99.90;;;;;;5075687;28;20079;-23
2023/04/16 09:42:51;;;;;;;40.97;15.52;;;13.00;99.90;;;;;;5075257;28;20080;-23
2023/04/16 09:45:17;;;;;;;41.60;15.70;;;13.20;99.90;;;;;;5074907;28;20045;-22
2023/04/16 09:47:45;;;;;;;32.15;17.13;;;13.40;99.90;;;;;;5057736;28;20067;-23
2023/04/16 09:50:18;;;;;;;36.72;16.15;;;13.30;99.90;;;;;;5057232;28;20049;-23
2023/04/16 09:52:52;;;;;;;42.85;16.65;;;13.70;73.00;;;;;;5057468;28;20050;-23
2023/04/16 09:55:26;;;;;;;31.20;15.20;;;13.70;67.80;;;;;;5074791;28;20059;-22
2023/04/16 09:57:59;;;;;;;36.50;15.98;;;13.70;18.20;;;;;;5057040;28;20136;-23
2023/04/16 10:00:27;;;;;;;38.72;16.40;;;13.80;76.90;;;;;;5074566;28;20135;-23
2023/04/16 10:03:04;;;;;;;30.58;14.73;;;13.80;97.50;;;;;;5056923;28;20048;-23
2023/04/16 10:05:30;;;;;;;31.30;14.07;;;14.10;99.90;;;;;;5056589;28;20087;-23
2023/04/16 10:08:00;;;;;;;30.55;14.93;;;14.10;99.90;;;;;;5074438;28;20083;-22
2023/04/16 10:10:25;;;;;;;34.92;14.77;;;14.00;69.80;;;;;;5074517;28;20055;-23
2023/04/16 10:12:52;;;;;;;38.50;14.82;;;14.10;63.40;;;;;;5057166;28;20375;-23
2023/04/16 10:15:18;;;;;;;38.50;16.65;;;13.90;1.00;;;;;;5074365;28;20074;-23
2023/04/16 10:17:45;;;;;;;36.28;14.82;;;13.60;1.00;;;;;;5074241;28;20040;-23
2023/04/16 10:20:11;;;;;;;33.95;15.25;;;13.00;82.50;;;;;;5074257;28;20487;-23
2023/04/16 10:22:36;;;;;;;28.90;14.52;;;12.90;81.20;;;;;;5056213;28;20055;-23
2023/04/16 10:25:02;;;;;;;31.92;14.82;;;13.10;99.90;;;;;;5074036;28;20040;-23
2023/04/16 10:27:29;;;;;;;31.17;15.65;;;12.90;99.90;;;;;;5056006;28;20557;-22
2023/04/16 10:29:55;;;;;;;28.13;15.82;;;13.10;99.90;;;;;;5057030;28;20095;-23
2023/04/16 10:32:22;;;;;;;38.40;17.10;;;13.00;99.90;;;;;;5074057;28;20089;-23
2023/04/16 10:34:48;;;;;;;39.72;17.02;;;12.80;99.90;;;;;;5057043;28;20056;-23
2023/04/16 10:37:16;;;;;;;42.72;18.85;;;12.40;99.90;;;;;;5073805;28;20055;-23
2023/04/16 10:39:43;;;;;;;39.58;19.90;;;12.00;99.90;;;;;;5073953;28;20131;-23
2023/04/16 10:42:11;;;;;;;39.42;18.40;;;11.70;1.00;;;;;;5073924;28;20505;-22
2023/04/16 10:44:38;;;;;;;43.50;19.30;;;11.50;1.00;;;;;;5074040;28;20044;-23
2023/04/16 10:47:11;;;;;;;39.85;17.98;;;11.30;1.00;;;;;;5073572;28;20495;-23
2023/04/16 10:49:37;;;;;;;;;;;11.50;1.00;;;;;;5074302;28;20052;-23
2023/04/16 10:52:12;;;;;;;42.28;18.00;;;11.60;1.00;;;;;;5074513;28;19927;-22
2023/04/16 10:54:38;;;;;;;35.00;16.40;;;11.70;1.00;;;;;;5073646;28;20036;-23
2023/04/16 10:57:06;;;;;;;39.33;18.00;;;11.50;1.00;;;;;;5073746;28;20074;-22
2023/04/16 10:59:34;;;;;;;35.33;16.77;;;11.50;1.00;;;;;;5055807;28;20132;-23
2023/04/16 11:02:05;;;;;;;35.88;16.75;;;11.70;1.00;;;;;;5073629;28;20047;-22
2023/04/16 11:04:39;;;;;;;41.15;17.33;;;11.80;1.00;;;;;;5074178;28;20045;-22
2023/04/16 11:07:12;;;;;;;42.85;17.58;;;11.90;1.00;;;;;;5073670;28;20391;-23
2023/04/16 11:09:43;;;;;;;39.78;16.77;;;12.00;1.00;;;;;;5073639;28;20122;-22
2023/04/16 11:12:12;;;;;;;35.33;18.05;;;11.80;1.00;;;;;;5073611;28;20113;-22
2023/04/16 11:14:41;;;;;;;39.90;18.73;;;11.90;1.00;;;;;;5056328;28;20098;-22
2023/04/16 11:17:08;;;;;;;38.08;17.63;;;11.70;1.00;;;;;;5074098;28;20048;-23
2023/04/16 11:19:37;;;;;;;33.10;16.75;;;11.80;1.00;;;;;;5073495;28;20052;-23
2023/04/16 11:22:04;;;;;;;39.25;17.70;;;12.10;1.00;;;;;;5074011;28;20048;-23
2023/04/16 11:24:31;;;;;;;34.70;17.15;;;12.40;1.00;;;;;;5072968;28;20044;-23
2023/04/16 11:26:56;;;;;;;32.45;16.80;;;12.80;1.00;;;;;;5073264;28;20044;-22
2023/04/16 11:29:22;;;;;;;30.20;16.92;;;12.90;99.90;;;;;;5073351;28;20036;-23
2023/04/16 11:31:52;;;;;;;35.85;16.85;;;13.10;99.90;;;;;;5038851;28;20044;-23
2023/04/16 11:34:18;;;;;;;34.60;16.58;;;13.30;99.90;;;;;;5073342;28;20120;-23
2023/04/16 11:36:45;;;;;;;36.40;16.27;;;13.20;99.90;;;;;;5055212;28;20451;-22
2023/04/16 11:39:11;;;;;;;34.65;16.50;;;13.50;99.90;;;;;;5073857;28;20383;-23
2023/04/16 11:41:44;;;;;;;38.40;17.40;;;13.00;99.90;;;;;;5055769;28;20131;-23
2023/04/16 11:44:25;;;;;;;36.63;18.00;;;12.70;99.90;;;;;;5073246;28;20059;-23
2023/04/16 11:46:51;;;;;;;35.47;17.63;;;13.00;99.90;;;;;;5073264;28;20066;-23
2023/04/16 11:49:29;;;;;;;30.23;17.58;;;13.00;99.90;;;;;;5055939;28;20395;-23
2023/04/16 11:51:55;;;;;;;34.38;16.60;;;13.10;99.90;;;;;;5073203;28;20132;-23
2023/04/16 11:54:23;;;;;;;36.22;17.90;;;13.10;99.90;;;;;;5073181;28;20047;-23
2023/04/16 11:56:51;;;;;;;32.65;17.15;;;13.20;99.90;;;;;;5073228;28;20076;-23
2023/04/16 11:59:18;;;;;;;33.40;17.70;;;13.30;99.90;;;;;;5055817;28;20098;-23
2023/04/16 12:01:47;;;;;;;33.90;16.70;;;13.70;99.90;;;;;;5055272;28;20119;-23
2023/04/16 12:04:15;;;;;;;22.83;14.35;;;13.60;99.90;;;;;;5055269;28;20505;-23
2023/04/16 12:07:11;;;;;;;26.50;14.65;;;13.90;99.90;;;;;;5056227;28;20382;-23
2023/04/16 12:09:41;;;;;;;24.30;12.45;;;14.10;16.20;;;;;;5073110;28;20509;-23
2023/04/16 12:12:30;;;;;;;31.23;14.98;;;14.20;37.40;;;;;;5055455;28;20487;-23
2023/04/16 12:14:58;;;;;;;23.95;13.38;;;14.20;1.00;;;;;;5055672;28;20056;-23
2023/04/16 12:17:24;;;;;;;30.92;13.60;;;14.60;1.00;;;;;;5073535;28;20052;-23
2023/04/16 12:20:07;;;;;;;29.50;15.02;;;14.90;99.90;;;;;;5055604;28;20174;-23
2023/04/16 12:22:34;;;;;;;30.05;15.95;;;14.50;66.60;;;;;;5054887;28;20499;-23
2023/04/16 12:25:10;;;;;;;33.75;15.57;;;14.10;99.90;;;;;;5073691;28;20059;-23
2023/04/16 12:27:46;;;;;;;28.45;15.20;;;14.10;99.90;;;;;;5057658;28;20041;-22